Terminal Aerodrome Forecast
Issued by NWS Billings, MT

Home | Current Version | Previous Version | Text Only | Print | Product List | Glossary On
Versions: 1 2 3 4 5 6 7 8 9 10 11 12 13 14 15 16 17 18 19 20 21 22
000
FTUS45 KBYZ 181730
TAFMLS
TAF
KMLS 181730Z 1818/1918 17005KT P6SM VCSH BKN070 OVC100
     FM182000 21006KT P6SM VCTS SCT060 BKN080CB
     FM190600 22006KT P6SM VCSH BKN070
     FM191200 29015KT P6SM SCT080=

USA.gov is the U.S. government's official web portal to all federal, state and local government web resources and services.